Aviation Digital Data Service (ADDS)

Output produced by TAFs form (2113 UTC 02 September 2014)
found at http://aviationweather.gov/adds/tafs/
 
KEGE 021908Z 0219/0318 25008KT P6SM SKC 
     FM022000 24012G24KT P6SM FEW120 
     FM030100 25005KT P6SM SKC 
     FM030400 10004KT P6SM SKC 
     FM031200 00000KT P6SM SKC